Aérodrome :
LOGIN :

S'inscrire | Disclaimer

   EN    FR    IT 

 










Légende :    VFR   VFR Marginal   IFR   IFR Intensif   IFR Très Intensif
Visi : 
Plafond : 
>= 8 km
>= 3000ft
5 à 8 km
1000 à 3000 ft
1500m à 5 km
500 à 1000 ft
800 à 1500m
200 à 500 ft
< 800m
< 200 ft
Symboles :   Orages  Brouillard  Fortes neiges  Fortes précipitations  Vent > 20 kt
SIGMETs :   Divers  Orages  Givrage  Turbulence  Onde Orograph.  Cendres Volcan.







- Altitude de l'aérodrome : 876 ft
- Code IATA : MBX


LJMB - Maribor

DERNIER METAR :
  • 261730Z 17007KT CAVOK 30/20 Q1022

METARs EXPIRÉS :
  • 261700Z 17007KT CAVOK 31/20 Q1022
  • 261630Z 17008KT CAVOK 31/19 Q1022
  • 261600Z 16008KT CAVOK 31/18 Q1022
  • 261530Z 18008KT CAVOK 32/19 Q1022
  • 261500Z 18008KT 150V210 CAVOK 31/17 Q1023

TAF TAF LJMB
Valide du 26 à 18h jusqu'au 27 à 18h UTC


261700Z 2618/2718 17005KT CAVOK
BECMG 2618/2620 VRB02KT
BECMG 2707/2709 16005KT FEW050
TEMPO 2712/2718 6000 TSRA SCT050CB BKN060
Pas de NOTAMs connus pour ce terrain.



MET'MAP, la Météo Aéronautique d'un coup d'oeil ! - Copyright ORBIFLY Décembre 2007 - Disclaimer

ORBIFLY MET'MAP TEAM :

Programmation & Développement : Alexandra Zaïnal
Conception & Développement : Baudouin d'Aumeries
Co-Programmation & Développement : Marc-Olivier Méhu
Soutien technique & logistique : Manuel Goepfert

Contact : metmap@orbifly.com




SOURCES & CREDITS :

   NOAA